KFET/FET METAR and TAF weather

Enter ICAO airport designator
Station Type Date Time Source
KFET METAR 2022/01/19 19:15 UTC NOAA

KFET 191915Z AUTO 34019G27KT 10SM CLR M09/M20 A3048 RMK AO2 T10931196


Station Type Date Time Source
KFET Decoded METAR 2022/01/19 19:15 UTC NOAA

Fremont Municipal Airport, NE, United States (KFET) 41-27N 096-31W
Jan 19, 2022 - 02:15 PM EST / 2022.01.19 1915 UTC
Wind: from the NNW (340 degrees) at 22 MPH (19 KT) gusting to 31 MPH (27 KT):0
Visibility: 10 mile(s):0
Sky conditions: clear
Temperature: 15.3 F (-9.3 C)
Windchill: -2 F (-19 C):1
Dew Point: -3.3 F (-19.6 C)
Relative Humidity: 42%
Pressure (altimeter): 30.48 in. Hg (1032 hPa)
ob: KFET 191915Z AUTO 34019G27KT 10SM CLR M09/M20 A3048 RMK AO2 T10931196
cycle: 19

Station Type Date Time Source
KFET TAF UTC NOAA

Error!

Example: see airport list